createdAt,value
2018-02-08T00:00:44.498Z,100782.81
2018-02-08T00:01:50.502Z,100772.84
2018-02-08T00:02:56.730Z,100779.23
2018-02-08T00:04:02.954Z,100775.34
2018-02-08T00:05:08.994Z,100778.33
2018-02-08T00:06:15.325Z,100775.81
2018-02-08T00:07:23.159Z,100772.78
2018-02-08T00:08:29.311Z,100769.86
2018-02-08T00:09:36.032Z,100771.20
2018-02-08T00:10:42.341Z,100766.56
2018-02-08T00:11:48.294Z,100765.70
2018-02-08T00:12:54.260Z,100767.06
2018-02-08T00:14:00.501Z,100769.22
2018-02-08T00:15:06.375Z,100761.45
2018-02-08T00:16:12.706Z,100767.87
2018-02-08T00:17:18.929Z,100759.31
2018-02-08T00:18:25.407Z,100765.33
2018-02-08T00:19:32.049Z,100764.47
2018-02-08T00:20:38.284Z,100769.91
2018-02-08T00:21:44.623Z,100769.89
2018-02-08T00:22:51.431Z,100778.50
2018-02-08T00:23:57.713Z,100775.87
2018-02-08T00:25:03.954Z,100776.34
2018-02-08T00:26:10.130Z,100769.52
2018-02-08T00:27:16.527Z,100776.34
2018-02-08T00:28:24.251Z,100779.88
2018-02-08T00:29:31.580Z,100786.62
2018-02-08T00:30:37.801Z,100776.21
2018-02-08T00:31:44.190Z,100780.42
2018-02-08T00:32:50.325Z,100779.90
2018-02-08T00:33:56.599Z,100779.98
2018-02-08T00:35:03.727Z,100781.25
2018-02-08T00:36:10.036Z,100784.70
2018-02-08T00:37:17.206Z,100789.86
2018-02-08T00:38:24.320Z,100783.38
2018-02-08T00:39:31.291Z,100784.16
2018-02-08T00:40:37.658Z,100782.83
2018-02-08T00:41:43.957Z,100784.94
2018-02-08T00:42:50.263Z,100784.89
2018-02-08T00:43:56.614Z,100783.97
2018-02-08T00:45:02.904Z,100779.86
2018-02-08T00:46:09.348Z,100780.95
2018-02-08T00:47:15.652Z,100787.31
2018-02-08T00:48:21.838Z,100784.72
2018-02-08T00:49:28.087Z,100783.40
2018-02-08T00:50:34.259Z,100780.97
2018-02-08T00:51:40.739Z,100786.03
2018-02-08T00:52:46.920Z,100784.31
2018-02-08T00:53:53.197Z,100783.00
2018-02-08T00:54:59.403Z,100780.27
2018-02-08T00:56:05.726Z,100785.52
2018-02-08T00:57:12.208Z,100785.48
2018-02-08T00:58:18.517Z,100786.29
2018-02-08T00:59:25.336Z,100787.13
2018-02-08T01:00:37.335Z,100782.39
2018-02-08T01:01:44.363Z,100780.73
2018-02-08T01:02:50.733Z,100782.52
2018-02-08T01:03:57.053Z,100788.45
2018-02-08T01:05:03.225Z,100779.39
2018-02-08T01:06:09.497Z,100781.11
2018-02-08T01:07:15.933Z,100781.53
2018-02-08T01:08:22.008Z,100787.97
2018-02-08T01:09:28.028Z,100791.35
2018-02-08T01:10:34.648Z,100788.84
2018-02-08T01:11:40.861Z,100788.78
2018-02-08T01:12:47.059Z,100796.09
2018-02-08T01:13:53.372Z,100793.17
2018-02-08T01:14:59.638Z,100790.52
2018-02-08T01:16:05.861Z,100791.34
2018-02-08T01:17:12.799Z,100791.84
2018-02-08T01:18:20.324Z,100789.17
2018-02-08T01:19:26.527Z,100793.07
2018-02-08T01:20:33.792Z,100789.51
2018-02-08T01:21:40.062Z,100793.42
2018-02-08T01:22:46.415Z,100788.33
2018-02-08T01:23:52.705Z,100790.80
2018-02-08T01:24:59.973Z,100792.02
2018-02-08T01:26:06.341Z,100795.06
2018-02-08T01:27:13.427Z,100789.86
2018-02-08T01:28:20.500Z,100792.00
2018-02-08T01:29:28.109Z,100789.42
2018-02-08T01:30:34.624Z,100794.17
2018-02-08T01:31:40.643Z,100804.42
2018-02-08T01:32:46.890Z,100797.92
2018-02-08T01:33:53.203Z,100800.42
2018-02-08T01:34:59.394Z,100800.80
2018-02-08T01:36:05.650Z,100804.30
2018-02-08T01:37:11.883Z,100801.28
2018-02-08T01:38:19.505Z,100802.61
2018-02-08T01:39:26.559Z,100811.94
2018-02-08T01:40:33.547Z,100803.73
2018-02-08T01:41:39.725Z,100804.17
2018-02-08T01:42:45.884Z,100810.19
2018-02-08T01:43:52.174Z,100807.59
2018-02-08T01:44:58.549Z,100810.98
2018-02-08T01:46:05.057Z,100813.09
2018-02-08T01:47:12.526Z,100811.40
2018-02-08T01:48:19.149Z,100814.47
2018-02-08T01:49:36.469Z,100813.05
2018-02-08T01:50:42.329Z,100804.08
2018-02-08T01:51:48.563Z,100803.30
2018-02-08T01:52:54.830Z,100801.17
2018-02-08T01:54:01.221Z,100802.75
2018-02-08T01:55:07.629Z,100798.09
2018-02-08T01:56:13.825Z,100804.95
2018-02-08T01:57:20.124Z,100807.83
2018-02-08T01:58:26.007Z,100802.75
2018-02-08T01:59:32.380Z,100802.31
2018-02-08T02:00:38.504Z,100802.89
2018-02-08T02:01:43.773Z,100801.69
2018-02-08T02:02:49.963Z,100801.73
2018-02-08T02:03:55.860Z,100802.23
2018-02-08T02:05:03.429Z,100804.23
2018-02-08T02:06:10.544Z,100802.52
2018-02-08T02:07:16.743Z,100802.94
2018-02-08T02:08:22.921Z,100804.21
2018-02-08T02:09:28.812Z,100810.27
2018-02-08T02:10:35.066Z,100805.41
2018-02-08T02:11:42.534Z,100806.30
2018-02-08T02:12:48.775Z,100811.10
2018-02-08T02:13:54.984Z,100809.38
2018-02-08T02:15:01.305Z,100812.03
2018-02-08T02:16:07.632Z,100807.88
2018-02-08T02:17:14.373Z,100811.77
2018-02-08T02:18:20.681Z,100811.14
2018-02-08T02:19:26.681Z,100811.14
2018-02-08T02:20:33.479Z,100807.89
2018-02-08T02:21:39.670Z,100808.69
2018-02-08T02:22:45.839Z,100804.39
2018-02-08T02:23:51.933Z,100807.74
2018-02-08T02:24:58.240Z,100811.25
2018-02-08T02:26:08.338Z,100806.06
2018-02-08T02:27:14.472Z,100799.91
2018-02-08T02:28:20.759Z,100804.62
2018-02-08T02:29:31.772Z,100797.66
2018-02-08T02:30:38.160Z,100804.05
2018-02-08T02:31:44.559Z,100796.39
2018-02-08T02:32:50.975Z,100800.38
2018-02-08T02:33:58.488Z,100799.98
2018-02-08T02:35:05.137Z,100799.98
2018-02-08T02:36:11.338Z,100800.61
2018-02-08T02:37:17.467Z,100809.94
2018-02-08T02:38:23.685Z,100810.91
2018-02-08T02:39:30.024Z,100810.57
2018-02-08T02:40:36.240Z,100810.83
2018-02-08T02:41:43.358Z,100820.56
2018-02-08T02:42:49.467Z,100816.77
2018-02-08T02:43:55.781Z,100814.59
2018-02-08T02:45:02.228Z,100820.23
2018-02-08T02:46:08.422Z,100816.27
2018-02-08T02:47:14.609Z,100820.02
2018-02-08T02:48:21.705Z,100815.38
2018-02-08T02:49:28.852Z,100820.59
2018-02-08T02:50:34.717Z,100821.42
2018-02-08T02:51:40.869Z,100817.69
2018-02-08T02:52:47.123Z,100814.66
2018-02-08T02:53:53.573Z,100821.19
2018-02-08T02:54:59.620Z,100818.12
2018-02-08T02:56:05.904Z,100820.59
2018-02-08T02:57:12.127Z,100819.34
2018-02-08T02:58:18.308Z,100825.16
2018-02-08T02:59:24.603Z,100818.13
2018-02-08T03:00:30.892Z,100823.23
2018-02-08T03:01:37.065Z,100820.69
2018-02-08T03:02:43.232Z,100818.63
2018-02-08T03:03:49.756Z,100814.42
2018-02-08T03:04:56.002Z,100814.34
2018-02-08T03:06:02.205Z,100818.12
2018-02-08T03:07:08.392Z,100814.17
2018-02-08T03:08:14.897Z,100817.02
2018-02-08T03:09:21.948Z,100811.86
2018-02-08T03:10:27.990Z,100820.26
2018-02-08T03:11:33.878Z,100815.29
2018-02-08T03:12:40.112Z,100815.02
2018-02-08T03:13:46.326Z,100814.91
2018-02-08T03:14:53.264Z,100811.45
2018-02-08T03:15:59.607Z,100820.27
2018-02-08T03:17:05.879Z,100816.80
2018-02-08T03:18:12.076Z,100814.79
2018-02-08T03:19:18.354Z,100819.83
2018-02-08T03:20:24.551Z,100817.34
2018-02-08T03:21:30.753Z,100817.38
2018-02-08T03:22:37.036Z,100820.91
2018-02-08T03:23:43.416Z,100814.56
2018-02-08T03:24:49.833Z,100817.55
2018-02-08T03:25:56.034Z,100814.13
2018-02-08T03:27:02.823Z,100824.23
2018-02-08T03:28:09.782Z,100818.44
2018-02-08T03:29:15.815Z,100815.05
2018-02-08T03:30:22.895Z,100821.70
2018-02-08T03:31:30.072Z,100817.02
2018-02-08T03:32:36.475Z,100821.73
2018-02-08T03:33:42.868Z,100820.59
2018-02-08T03:34:49.100Z,100823.48
2018-02-08T03:35:55.558Z,100822.14
2018-02-08T03:37:01.833Z,100823.86
2018-02-08T03:38:07.965Z,100819.45
2018-02-08T03:39:14.268Z,100820.09
2018-02-08T03:40:20.440Z,100826.95
2018-02-08T03:41:26.620Z,100829.45
2018-02-08T03:42:32.764Z,100822.46
2018-02-08T03:43:39.003Z,100829.97
2018-02-08T03:44:45.149Z,100824.05
2018-02-08T03:45:57.247Z,100827.36
2018-02-08T03:47:03.489Z,100823.98
2018-02-08T03:48:09.072Z,100820.11
2018-02-08T03:49:15.688Z,100822.33
2018-02-08T03:50:21.880Z,100820.14
2018-02-08T03:51:27.888Z,100819.41
2018-02-08T03:52:34.195Z,100820.69
2018-02-08T03:53:40.449Z,100813.03
2018-02-08T03:54:46.994Z,100818.17
2018-02-08T03:55:54.107Z,100828.64
2018-02-08T03:57:00.346Z,100821.90
2018-02-08T03:58:06.669Z,100823.29
2018-02-08T03:59:12.976Z,100825.52
2018-02-08T04:00:19.084Z,100829.47
2018-02-08T04:01:25.296Z,100830.11
2018-02-08T04:02:31.498Z,100827.25
2018-02-08T04:03:38.364Z,100834.55
2018-02-08T04:04:44.453Z,100831.77
2018-02-08T04:05:50.689Z,100834.98
2018-02-08T04:06:56.931Z,100838.66
2018-02-08T04:08:08.203Z,100837.72
2018-02-08T04:09:14.483Z,100836.92
2018-02-08T04:10:20.708Z,100833.23
2018-02-08T04:11:26.960Z,100834.84
2018-02-08T04:12:33.237Z,100833.22
2018-02-08T04:13:39.492Z,100831.04
2018-02-08T04:14:45.727Z,100830.00
2018-02-08T04:15:52.023Z,100832.98
2018-02-08T04:17:00.106Z,100833.27
2018-02-08T04:18:07.226Z,100831.00
2018-02-08T04:19:13.379Z,100824.66
2018-02-08T04:20:19.623Z,100833.34
2018-02-08T04:21:26.798Z,100829.41
2018-02-08T04:22:33.149Z,100827.22
2018-02-08T04:23:39.298Z,100829.02
2018-02-08T04:24:45.625Z,100837.55
2018-02-08T04:25:51.895Z,100834.71
2018-02-08T04:26:59.284Z,100833.16
2018-02-08T04:28:06.714Z,100830.35
2018-02-08T04:29:13.798Z,100834.69
2018-02-08T04:30:20.032Z,100835.20
2018-02-08T04:31:26.236Z,100829.14
2018-02-08T04:32:32.611Z,100832.67
2018-02-08T04:33:39.200Z,100834.94
2018-02-08T04:34:45.718Z,100834.02
2018-02-08T04:35:51.986Z,100833.58
2018-02-08T04:36:58.312Z,100837.81
2018-02-08T04:38:04.182Z,100838.30
2018-02-08T04:39:21.451Z,100847.84
2018-02-08T04:40:39.467Z,100845.45
2018-02-08T04:41:56.787Z,100851.36
2018-02-08T04:43:13.849Z,100842.95
2018-02-08T04:44:30.936Z,100849.64
2018-02-08T04:45:48.922Z,100854.05
2018-02-08T04:59:03.325Z,100856.09
2018-02-08T05:00:09.587Z,100857.42
2018-02-08T05:01:15.911Z,100850.70
2018-02-08T05:02:21.938Z,100856.72
2018-02-08T05:03:28.187Z,100859.27
2018-02-08T05:04:34.441Z,100860.91
2018-02-08T05:05:40.699Z,100863.05
2018-02-08T05:06:46.860Z,100862.61
2018-02-08T05:07:53.066Z,100867.45
2018-02-08T05:08:59.339Z,100868.42
2018-02-08T05:10:05.946Z,100868.73
2018-02-08T05:11:12.157Z,100873.07
2018-02-08T05:12:18.356Z,100871.35
2018-02-08T05:13:24.549Z,100876.12
2018-02-08T05:14:30.869Z,100875.30
2018-02-08T05:15:37.109Z,100877.34
2018-02-08T05:16:43.542Z,100878.38
2018-02-08T05:17:49.722Z,100882.67
2018-02-08T05:18:55.922Z,100880.91
2018-02-08T05:20:02.180Z,100878.77
2018-02-08T05:21:08.466Z,100886.50
2018-02-08T05:22:14.684Z,100880.46
2018-02-08T05:23:20.641Z,100885.38
2018-02-08T05:24:26.913Z,100885.91
2018-02-08T05:25:37.515Z,100887.66
2018-02-08T05:26:43.745Z,100884.61
2018-02-08T05:27:49.977Z,100884.66
2018-02-08T05:28:56.165Z,100892.81
2018-02-08T05:30:02.441Z,100888.98
2018-02-08T05:31:08.723Z,100891.59
2018-02-08T05:32:15.133Z,100891.62
2018-02-08T05:33:22.366Z,100892.00
2018-02-08T05:34:28.995Z,100887.25
2018-02-08T05:35:35.555Z,100887.41
2018-02-08T05:36:41.916Z,100890.42
2018-02-08T05:37:48.879Z,100892.53
2018-02-08T05:38:56.727Z,100890.87
2018-02-08T05:40:03.913Z,100893.12
2018-02-08T05:41:10.384Z,100899.55
2018-02-08T05:42:17.510Z,100897.58
2018-02-08T05:43:24.735Z,100899.66
2018-02-08T05:44:31.605Z,100897.78
2018-02-08T05:45:38.919Z,100893.41
2018-02-08T05:46:45.530Z,100901.20
2018-02-08T05:47:52.264Z,100900.45
2018-02-08T05:48:58.509Z,100903.50
2018-02-08T05:50:04.436Z,100903.43
2018-02-08T05:51:10.762Z,100904.14
2018-02-08T05:52:16.944Z,100910.20
2018-02-08T05:53:23.209Z,100905.52
2018-02-08T05:54:29.629Z,100912.77
2018-02-08T05:55:39.859Z,100915.34
2018-02-08T05:56:46.108Z,100911.87
2018-02-08T05:57:52.669Z,100915.36
2018-02-08T05:58:59.333Z,100912.02
2018-02-08T06:00:05.444Z,100915.46
2018-02-08T06:01:11.443Z,100910.52
2018-02-08T06:02:17.660Z,100914.77
2018-02-08T06:03:23.803Z,100917.73
2018-02-08T06:04:30.063Z,100912.22
2018-02-08T06:05:36.340Z,100913.55
2018-02-08T06:06:42.515Z,100921.29
2018-02-08T06:07:49.028Z,100914.46
2018-02-08T06:08:55.238Z,100921.15
2018-02-08T06:10:01.275Z,100921.26
2018-02-08T06:11:08.585Z,100922.06
2018-02-08T06:12:16.091Z,100923.79
2018-02-08T06:13:22.652Z,100920.72
2018-02-08T06:14:29.002Z,100922.75
2018-02-08T06:15:41.005Z,100922.24
2018-02-08T06:16:47.156Z,100927.39
2018-02-08T06:17:53.376Z,100923.15
2018-02-08T06:18:59.573Z,100924.08
2018-02-08T06:20:06.197Z,100930.62
2018-02-08T06:21:12.164Z,100929.02
2018-02-08T06:22:18.414Z,100932.02
2018-02-08T06:23:24.720Z,100929.06
2018-02-08T06:24:30.859Z,100932.81
2018-02-08T06:25:37.076Z,100937.41
2018-02-08T06:26:43.102Z,100939.13
2018-02-08T06:27:49.308Z,100930.60
2018-02-08T06:28:55.506Z,100938.06
2018-02-08T06:30:02.717Z,100936.50
2018-02-08T06:31:09.404Z,100936.87
2018-02-08T06:32:15.749Z,100935.19
2018-02-08T06:33:21.964Z,100938.30
2018-02-08T06:34:28.288Z,100935.75
2018-02-08T06:35:34.549Z,100933.61
2018-02-08T06:36:41.446Z,100932.32
2018-02-08T06:37:47.600Z,100941.44
2018-02-08T06:38:54.621Z,100937.19
2018-02-08T06:40:00.998Z,100934.95
2018-02-08T06:41:06.966Z,100939.25
2018-02-08T06:42:13.180Z,100938.43
2018-02-08T06:43:19.380Z,100942.42
2018-02-08T06:44:25.896Z,100942.08
2018-02-08T06:45:32.899Z,100947.67
2018-02-08T06:46:39.181Z,100944.08
2018-02-08T06:47:46.191Z,100939.28
2018-02-08T06:48:52.549Z,100944.30
2018-02-08T06:49:59.701Z,100944.14
2018-02-08T06:51:05.892Z,100947.15
2018-02-08T06:52:12.186Z,100947.97
2018-02-08T06:53:28.692Z,100944.09
2018-02-08T06:54:34.863Z,100944.03
2018-02-08T06:55:41.142Z,100943.06
2018-02-08T06:56:47.348Z,100948.47
2018-02-08T06:57:53.674Z,100952.42
2018-02-08T06:58:59.922Z,100946.17
2018-02-08T07:00:05.813Z,100950.45
2018-02-08T07:01:12.540Z,100952.55
2018-02-08T07:02:18.880Z,100949.08
2018-02-08T07:03:24.844Z,100950.95
2018-02-08T07:04:31.024Z,100950.34
2018-02-08T07:05:37.208Z,100955.78
2018-02-08T07:06:44.362Z,100956.57
2018-02-08T07:07:50.615Z,100959.52
2018-02-08T07:08:56.794Z,100959.19
2018-02-08T07:10:02.990Z,100957.92
2018-02-08T07:11:09.212Z,100960.48
2018-02-08T07:12:15.355Z,100958.31
2018-02-08T07:13:21.599Z,100962.14
2018-02-08T07:14:27.805Z,100961.73
2018-02-08T07:15:34.064Z,100965.17
2018-02-08T07:16:40.253Z,100960.92
2018-02-08T07:17:46.399Z,100962.73
2018-02-08T07:18:52.609Z,100969.56
2018-02-08T07:19:59.700Z,100971.31
2018-02-08T07:21:05.912Z,100966.17
2018-02-08T07:22:12.312Z,100968.67
2018-02-08T07:23:18.648Z,100970.41
2018-02-08T07:24:25.650Z,100969.11
2018-02-08T07:25:32.118Z,100972.31
2018-02-08T07:26:38.077Z,100966.35
2018-02-08T07:27:44.364Z,100968.55
2018-02-08T07:28:50.577Z,100966.61
2018-02-08T07:29:56.699Z,100965.33
2018-02-08T07:31:02.839Z,100967.27
2018-02-08T07:32:08.989Z,100963.44
2018-02-08T07:33:15.189Z,100962.02
2018-02-08T07:34:21.530Z,100964.33
2018-02-08T07:35:28.364Z,100960.98
2018-02-08T07:36:34.539Z,100964.39
2018-02-08T07:37:40.723Z,100968.60
2018-02-08T07:38:46.972Z,100962.13
2018-02-08T07:39:53.179Z,100963.11
2018-02-08T07:40:59.387Z,100967.39
2018-02-08T07:42:05.301Z,100975.13
2018-02-08T07:43:11.549Z,100974.27
2018-02-08T07:44:17.756Z,100973.38
2018-02-08T07:45:24.002Z,100973.08
2018-02-08T07:46:30.193Z,100978.35
2018-02-08T07:47:36.405Z,100973.03
2018-02-08T07:48:42.621Z,100970.84
2018-02-08T07:49:49.142Z,100972.41
2018-02-08T07:50:55.307Z,100979.66
2018-02-08T07:52:01.452Z,100974.12
2018-02-08T07:53:07.611Z,100970.76
2018-02-08T07:54:13.965Z,100975.80
2018-02-08T07:55:20.174Z,100979.71
2018-02-08T07:56:26.372Z,100981.77
2018-02-08T07:57:32.644Z,100977.52
2018-02-08T07:58:38.784Z,100972.84
2018-02-08T07:59:45.087Z,100980.26
2018-02-08T08:00:51.435Z,100979.89
2018-02-08T08:01:57.605Z,100977.73
2018-02-08T08:03:03.885Z,100982.33
2018-02-08T08:04:10.187Z,100980.23
2018-02-08T08:05:16.412Z,100983.35
2018-02-08T08:06:22.676Z,100980.50
2018-02-08T08:07:28.596Z,100981.77
2018-02-08T08:08:34.917Z,100983.33
2018-02-08T08:09:40.972Z,100980.92
2018-02-08T08:10:47.454Z,100984.47
2018-02-08T08:11:56.016Z,100984.31
2018-02-08T08:13:02.421Z,100982.61
2018-02-08T08:14:09.269Z,100982.69
2018-02-08T08:15:15.416Z,100988.63
2018-02-08T08:16:21.833Z,100990.10
2018-02-08T08:17:28.113Z,100990.15
2018-02-08T08:18:34.326Z,100983.97
2018-02-08T08:19:40.767Z,100983.27
2018-02-08T08:20:46.949Z,100992.67
2018-02-08T08:21:54.868Z,100988.69
2018-02-08T08:23:02.014Z,100994.02
2018-02-08T08:24:08.217Z,100993.28
2018-02-08T08:25:14.788Z,100997.61
2018-02-08T08:26:21.123Z,100995.88
2018-02-08T08:27:27.467Z,100996.27
2018-02-08T08:28:33.769Z,101000.08
2018-02-08T08:29:39.867Z,100998.44
2018-02-08T08:30:46.099Z,100997.75
2018-02-08T08:31:52.380Z,100995.20
2018-02-08T08:32:58.931Z,100997.47
2018-02-08T08:34:05.493Z,100998.73
2018-02-08T08:35:12.565Z,101001.73
2018-02-08T08:36:19.805Z,101003.11
2018-02-08T08:37:26.369Z,101001.36
2018-02-08T08:38:32.579Z,101003.91
2018-02-08T08:39:38.837Z,101007.98
2018-02-08T08:40:45.062Z,101007.95
2018-02-08T08:41:51.434Z,101013.47
2018-02-08T08:42:57.925Z,101005.85
2018-02-08T08:44:04.002Z,101003.68
2018-02-08T08:45:10.373Z,101008.44
2018-02-08T08:46:16.584Z,101005.21
2018-02-08T08:47:22.991Z,101010.20
2018-02-08T08:48:30.120Z,101009.20
2018-02-08T08:49:37.288Z,101009.34
2018-02-08T08:50:43.490Z,101013.86
2018-02-08T08:51:58.183Z,101016.61
2018-02-08T08:53:04.140Z,101010.74
2018-02-08T08:54:11.403Z,101010.00
2018-02-08T08:55:18.786Z,101016.69
2018-02-08T08:56:25.060Z,101014.62
2018-02-08T08:57:31.329Z,101017.56
2018-02-08T08:58:37.267Z,101018.45
2018-02-08T08:59:43.516Z,101020.42
2018-02-08T09:00:51.829Z,101016.63
2018-02-08T09:01:58.234Z,101016.30
2018-02-08T09:03:06.044Z,101022.32
2018-02-08T09:04:12.430Z,101019.27
2018-02-08T09:05:18.654Z,101019.27
2018-02-08T09:06:24.899Z,101025.13
2018-02-08T09:07:31.206Z,101026.05
2018-02-08T09:08:37.477Z,101024.83
2018-02-08T09:09:45.499Z,101022.75
2018-02-08T09:10:52.254Z,101030.10
2018-02-08T09:11:58.516Z,101026.72
2018-02-08T09:13:04.840Z,101030.14
2018-02-08T09:14:11.416Z,101033.17
2018-02-08T09:15:17.587Z,101033.90
2018-02-08T09:16:24.546Z,101033.98
2018-02-08T09:17:30.783Z,101024.68
2018-02-08T09:18:37.073Z,101026.94
2018-02-08T09:19:43.308Z,101030.38
2018-02-08T09:20:50.854Z,101027.81
2018-02-08T09:21:58.020Z,101031.22
2018-02-08T09:23:04.464Z,101020.62
2018-02-08T09:24:11.650Z,101024.95
2018-02-08T09:25:18.439Z,101027.49
2018-02-08T09:26:25.586Z,101027.57
2018-02-08T09:27:34.744Z,101021.64
2018-02-08T09:28:41.288Z,101026.73
2018-02-08T09:29:47.763Z,101023.41
2018-02-08T09:30:54.954Z,101021.68
2018-02-08T09:32:01.200Z,101027.23
2018-02-08T09:33:07.402Z,101027.93
2018-02-08T09:34:13.723Z,101034.42
2018-02-08T09:35:19.972Z,101029.71
2018-02-08T09:36:26.666Z,101032.73
2018-02-08T09:37:33.797Z,101031.83
2018-02-08T09:38:41.152Z,101028.13
2018-02-08T09:39:47.498Z,101034.06
2018-02-08T09:40:54.570Z,101032.30
2018-02-08T09:42:06.813Z,101033.57
2018-02-08T09:43:13.082Z,101033.09
2018-02-08T09:44:19.315Z,101037.36
2018-02-08T09:45:25.707Z,101035.99
2018-02-08T09:46:32.222Z,101036.83
2018-02-08T09:47:39.480Z,101032.30
2018-02-08T09:48:46.722Z,101029.57
2018-02-08T09:49:53.914Z,101033.40
2018-02-08T09:51:00.764Z,101030.86
2018-02-08T09:52:07.893Z,101036.42
2018-02-08T09:53:15.291Z,101041.58
2018-02-08T09:54:21.703Z,101037.31
2018-02-08T09:55:27.713Z,101033.48
2018-02-08T09:56:34.053Z,101035.75
2018-02-08T09:57:40.845Z,101040.47
2018-02-08T09:58:47.174Z,101040.57
2018-02-08T09:59:54.297Z,101048.34
2018-02-08T10:01:00.520Z,101043.87
2018-02-08T10:02:06.733Z,101041.81
2018-02-08T10:03:12.996Z,101043.30
2018-02-08T10:04:20.148Z,101040.32
2018-02-08T10:05:26.659Z,101046.73
2018-02-08T10:06:32.908Z,101046.83
2018-02-08T10:07:39.140Z,101041.17
2018-02-08T10:08:45.368Z,101049.67
2018-02-08T10:09:51.818Z,101042.99
2018-02-08T10:10:58.937Z,101046.93
2018-02-08T10:12:05.192Z,101039.75
2018-02-08T10:13:11.478Z,101047.47
2018-02-08T10:14:17.800Z,101047.50
2018-02-08T10:15:29.242Z,101043.53
2018-02-08T10:16:35.274Z,101049.92
2018-02-08T10:17:41.528Z,101051.58
2018-02-08T10:18:48.276Z,101055.73
2018-02-08T10:19:54.576Z,101046.45
2018-02-08T10:21:00.898Z,101047.30
2018-02-08T10:22:07.144Z,101046.06
2018-02-08T10:23:13.629Z,101040.84
2018-02-08T10:24:20.185Z,101049.47
2018-02-08T10:25:26.816Z,101045.62
2018-02-08T10:26:33.076Z,101043.42
2018-02-08T10:27:39.628Z,101039.20
2018-02-08T10:28:46.636Z,101047.56
2018-02-08T10:29:53.061Z,101045.92
2018-02-08T10:30:59.356Z,101037.39
2018-02-08T10:32:05.654Z,101043.89
2018-02-08T10:33:11.894Z,101041.41
2018-02-08T10:34:18.187Z,101045.71
2018-02-08T10:35:24.495Z,101043.54
2018-02-08T10:36:31.354Z,101041.69
2018-02-08T10:37:37.604Z,101033.86
2018-02-08T10:38:43.879Z,101040.20
2018-02-08T10:39:50.125Z,101040.50
2018-02-08T10:40:57.416Z,101038.46
2018-02-08T10:42:03.603Z,101033.13
2018-02-08T10:43:10.676Z,101034.06
2018-02-08T10:44:17.033Z,101030.92
2018-02-08T10:45:23.603Z,101032.84
2018-02-08T10:46:29.817Z,101032.48
2018-02-08T10:47:36.392Z,101031.78
2018-02-08T10:48:42.663Z,101035.70
2018-02-08T10:49:49.024Z,101030.41
2018-02-08T10:50:55.445Z,101033.10
2018-02-08T10:52:01.723Z,101027.51
2018-02-08T10:53:07.999Z,101031.38
2018-02-08T10:54:14.196Z,101031.73
2018-02-08T10:55:20.476Z,101034.03
2018-02-08T10:56:26.709Z,101029.92
2018-02-08T10:57:33.828Z,101026.58
2018-02-08T10:58:40.342Z,101030.12
2018-02-08T10:59:48.238Z,101026.00
2018-02-08T11:00:56.978Z,101029.20
2018-02-08T11:02:03.261Z,101026.25
2018-02-08T11:03:09.672Z,101024.19
2018-02-08T11:04:16.327Z,101022.45
2018-02-08T11:05:22.698Z,101022.05
2018-02-08T11:06:29.061Z,101028.16
2018-02-08T11:07:36.064Z,101024.30
2018-02-08T11:08:43.119Z,101020.91
2018-02-08T11:09:52.524Z,101022.52
2018-02-08T11:10:58.824Z,101025.98
2018-02-08T11:12:06.166Z,101025.24
2018-02-08T11:13:15.021Z,101020.20
2018-02-08T11:14:21.312Z,101017.27
2018-02-08T11:15:28.462Z,101023.36
2018-02-08T11:16:34.655Z,101022.59
2018-02-08T11:17:40.884Z,101020.78
2018-02-08T11:18:47.072Z,101019.56
2018-02-08T11:19:53.430Z,101019.22
2018-02-08T11:20:59.696Z,101018.38
2018-02-08T11:22:05.961Z,101012.36
2018-02-08T11:23:14.311Z,101014.08
2018-02-08T11:24:20.982Z,101014.14
2018-02-08T11:25:27.216Z,101008.16
2018-02-08T11:26:33.526Z,101003.80
2018-02-08T11:27:42.503Z,101005.53
2018-02-08T11:28:49.619Z,101005.66
2018-02-08T11:29:56.580Z,101004.36
2018-02-08T11:31:02.800Z,101011.73
2018-02-08T11:32:09.945Z,101006.63
2018-02-08T11:33:17.191Z,101009.25
2018-02-08T11:34:23.412Z,101009.67
2018-02-08T11:35:29.623Z,101012.70
2018-02-08T11:36:36.142Z,101008.79
2018-02-08T11:37:43.316Z,101010.98
2018-02-08T11:38:49.539Z,101008.79
2018-02-08T11:39:55.873Z,101004.03
2018-02-08T11:41:02.884Z,101001.94
2018-02-08T11:42:09.808Z,101004.95
2018-02-08T11:43:16.784Z,101011.03
2018-02-08T11:44:23.985Z,101009.79
2018-02-08T11:45:30.599Z,101004.68
2018-02-08T11:46:36.860Z,101004.70
2018-02-08T11:47:43.300Z,100999.54
2018-02-08T11:48:49.548Z,101006.02
2018-02-08T11:49:58.504Z,101000.91
2018-02-08T11:51:05.516Z,100999.66
2018-02-08T11:52:11.797Z,101001.84
2018-02-08T11:53:18.942Z,101001.41
2018-02-08T11:54:24.914Z,100998.38
2018-02-08T11:55:30.970Z,101006.52
2018-02-08T11:56:38.769Z,100999.13
2018-02-08T11:57:45.009Z,101002.13
2018-02-08T11:58:51.543Z,100999.09
2018-02-08T11:59:57.843Z,101002.53
2018-02-08T12:01:04.850Z,101002.59
2018-02-08T12:02:11.061Z,101006.89
2018-02-08T12:03:17.476Z,101002.55
2018-02-08T12:04:24.869Z,101002.49
2018-02-08T12:05:31.307Z,101005.94
2018-02-08T12:06:37.883Z,100998.69
2018-02-08T12:07:44.124Z,101005.17
2018-02-08T12:08:50.977Z,101001.30
2018-02-08T12:09:58.070Z,101003.45
2018-02-08T12:11:04.351Z,100997.45
2018-02-08T12:12:10.573Z,101004.36
2018-02-08T12:13:18.907Z,101006.98
2018-02-08T12:14:26.011Z,101006.13
2018-02-08T12:15:32.660Z,101004.81
2018-02-08T12:16:41.309Z,100999.59
2018-02-08T12:17:49.472Z,101006.08
2018-02-08T12:18:56.721Z,101005.61
2018-02-08T12:20:04.195Z,101005.15
2018-02-08T12:21:12.966Z,101006.47
2018-02-08T12:22:22.424Z,101002.59
2018-02-08T12:23:30.191Z,100995.63
2018-02-08T12:24:40.008Z,101008.12
2018-02-08T12:25:47.623Z,101002.04
2018-02-08T12:27:00.628Z,100992.58
2018-02-08T12:28:09.028Z,100992.60
2018-02-08T12:29:22.100Z,100994.82
2018-02-08T12:30:29.911Z,100995.17
2018-02-08T12:31:38.008Z,100994.75
2018-02-08T12:32:48.344Z,100995.55
2018-02-08T12:33:55.988Z,100999.80
2018-02-08T12:35:03.907Z,100994.14
2018-02-08T12:36:11.655Z,100993.65
2018-02-08T12:37:19.423Z,100992.41
2018-02-08T12:38:28.999Z,100994.27
2018-02-08T12:39:38.003Z,100999.83
2018-02-08T12:40:45.348Z,100994.53
2018-02-08T12:41:55.345Z,100989.09
2018-02-08T12:43:02.825Z,100987.49
2018-02-08T12:44:10.598Z,100985.39
2018-02-08T12:45:18.433Z,100988.38
2018-02-08T12:46:25.884Z,100986.70
2018-02-08T12:47:33.722Z,100984.98
2018-02-08T12:48:41.296Z,100987.11
2018-02-08T12:49:51.502Z,100986.67
2018-02-08T12:51:01.553Z,100984.95
2018-02-08T12:52:08.923Z,100987.05
2018-02-08T12:53:15.967Z,100989.34
2018-02-08T12:54:23.281Z,100987.55